sensor_id;sensor_type;location;lat;lon;timestamp;P1;durP1;ratioP1;P2;durP2;ratioP2
142;SDS011;63667;49.046;8.468;2023-08-06T00:00:02;9.33;;;5.50;;
142;SDS011;63667;49.046;8.468;2023-08-06T00:02:32;10.83;;;5.80;;
142;SDS011;63667;49.046;8.468;2023-08-06T00:04:59;13.40;;;5.50;;
142;SDS011;63667;49.046;8.468;2023-08-06T00:07:26;9.50;;;5.53;;
142;SDS011;63667;49.046;8.468;2023-08-06T00:09:53;9.97;;;5.50;;
142;SDS011;63667;49.046;8.468;2023-08-06T00:12:20;7.10;;;4.93;;
142;SDS011;63667;49.046;8.468;2023-08-06T00:14:51;11.03;;;5.13;;
142;SDS011;63667;49.046;8.468;2023-08-06T00:17:18;11.70;;;4.70;;
142;SDS011;63667;49.046;8.468;2023-08-06T00:19:45;7.50;;;4.60;;
142;SDS011;63667;49.046;8.468;2023-08-06T00:22:13;7.27;;;4.57;;
142;SDS011;63667;49.046;8.468;2023-08-06T00:24:40;6.57;;;4.23;;
142;SDS011;63667;49.046;8.468;2023-08-06T00:27:08;11.23;;;4.50;;
142;SDS011;63667;49.046;8.468;2023-08-06T00:29:35;10.90;;;4.77;;
142;SDS011;63667;49.046;8.468;2023-08-06T00:32:03;11.83;;;4.90;;
142;SDS011;63667;49.046;8.468;2023-08-06T00:34:29;8.57;;;4.97;;
142;SDS011;63667;49.046;8.468;2023-08-06T00:36:56;9.07;;;5.10;;
142;SDS011;63667;49.046;8.468;2023-08-06T00:39:23;7.70;;;4.70;;
142;SDS011;63667;49.046;8.468;2023-08-06T00:41:50;6.73;;;4.43;;
142;SDS011;63667;49.046;8.468;2023-08-06T00:44:17;6.13;;;5.00;;
142;SDS011;63667;49.046;8.468;2023-08-06T00:46:45;7.40;;;5.00;;
142;SDS011;63667;49.046;8.468;2023-08-06T00:49:12;5.47;;;4.40;;
142;SDS011;63667;49.046;8.468;2023-08-06T00:51:39;7.33;;;4.60;;
142;SDS011;63667;49.046;8.468;2023-08-06T00:54:07;12.97;;;4.87;;
142;SDS011;63667;49.046;8.468;2023-08-06T00:56:34;10.70;;;4.47;;
142;SDS011;63667;49.046;8.468;2023-08-06T00:59:01;8.03;;;4.23;;
142;SDS011;63667;49.046;8.468;2023-08-06T01:01:29;8.20;;;4.90;;
142;SDS011;63667;49.046;8.468;2023-08-06T01:03:56;8.83;;;4.67;;
142;SDS011;63667;49.046;8.468;2023-08-06T01:06:35;5.80;;;4.83;;
142;SDS011;63667;49.046;8.468;2023-08-06T01:09:06;8.10;;;4.80;;
142;SDS011;63667;49.046;8.468;2023-08-06T01:11:42;7.33;;;4.47;;
142;SDS011;63667;49.046;8.468;2023-08-06T01:17:01;7.90;;;4.40;;
142;SDS011;63667;49.046;8.468;2023-08-06T01:19:29;6.40;;;4.30;;
142;SDS011;63667;49.046;8.468;2023-08-06T01:21:56;6.87;;;4.70;;
142;SDS011;63667;49.046;8.468;2023-08-06T01:24:23;9.00;;;4.77;;
142;SDS011;63667;49.046;8.468;2023-08-06T01:26:54;7.27;;;4.40;;
142;SDS011;63667;49.046;8.468;2023-08-06T01:29:30;11.37;;;4.93;;
142;SDS011;63667;49.046;8.468;2023-08-06T01:31:58;11.83;;;5.40;;
142;SDS011;63667;49.046;8.468;2023-08-06T01:34:25;10.10;;;5.40;;
142;SDS011;63667;49.046;8.468;2023-08-06T01:36:53;8.80;;;4.90;;
142;SDS011;63667;49.046;8.468;2023-08-06T01:39:21;5.77;;;4.70;;
142;SDS011;63667;49.046;8.468;2023-08-06T01:41:48;6.30;;;4.23;;
142;SDS011;63667;49.046;8.468;2023-08-06T01:44:15;8.13;;;4.80;;
142;SDS011;63667;49.046;8.468;2023-08-06T01:46:42;9.83;;;4.90;;
142;SDS011;63667;49.046;8.468;2023-08-06T01:49:09;6.73;;;4.23;;
142;SDS011;63667;49.046;8.468;2023-08-06T01:51:36;12.70;;;4.73;;
142;SDS011;63667;49.046;8.468;2023-08-06T01:54:04;8.50;;;4.70;;
142;SDS011;63667;49.046;8.468;2023-08-06T01:56:31;10.20;;;3.90;;
142;SDS011;63667;49.046;8.468;2023-08-06T01:58:58;5.90;;;4.30;;
142;SDS011;63667;49.046;8.468;2023-08-06T02:01:25;8.30;;;3.73;;
142;SDS011;63667;49.046;8.468;2023-08-06T02:03:53;7.73;;;3.60;;
142;SDS011;63667;49.046;8.468;2023-08-06T02:06:19;4.80;;;3.40;;
142;SDS011;63667;49.046;8.468;2023-08-06T02:08:47;8.60;;;3.30;;
142;SDS011;63667;49.046;8.468;2023-08-06T02:11:14;4.73;;;3.10;;
142;SDS011;63667;49.046;8.468;2023-08-06T02:13:41;7.17;;;3.80;;
142;SDS011;63667;49.046;8.468;2023-08-06T02:16:08;9.13;;;4.10;;
142;SDS011;63667;49.046;8.468;2023-08-06T02:18:36;5.57;;;3.90;;
142;SDS011;63667;49.046;8.468;2023-08-06T02:21:03;9.00;;;4.00;;
142;SDS011;63667;49.046;8.468;2023-08-06T02:23:31;7.30;;;4.13;;
142;SDS011;63667;49.046;8.468;2023-08-06T02:25:59;7.17;;;3.63;;
142;SDS011;63667;49.046;8.468;2023-08-06T02:28:29;7.70;;;4.03;;
142;SDS011;63667;49.046;8.468;2023-08-06T02:30:56;8.00;;;3.90;;
142;SDS011;63667;49.046;8.468;2023-08-06T02:33:23;4.30;;;3.43;;
142;SDS011;63667;49.046;8.468;2023-08-06T02:35:50;5.70;;;3.57;;
142;SDS011;63667;49.046;8.468;2023-08-06T02:38:18;8.13;;;4.20;;
142;SDS011;63667;49.046;8.468;2023-08-06T02:40:45;9.60;;;4.77;;
142;SDS011;63667;49.046;8.468;2023-08-06T02:43:12;6.40;;;4.40;;
142;SDS011;63667;49.046;8.468;2023-08-06T02:45:40;8.20;;;3.93;;
142;SDS011;63667;49.046;8.468;2023-08-06T02:48:07;7.20;;;4.07;;
142;SDS011;63667;49.046;8.468;2023-08-06T02:50:38;7.37;;;3.30;;
142;SDS011;63667;49.046;8.468;2023-08-06T02:53:06;9.73;;;3.70;;
142;SDS011;63667;49.046;8.468;2023-08-06T02:55:33;5.77;;;3.97;;
142;SDS011;63667;49.046;8.468;2023-08-06T02:58:03;6.50;;;3.27;;
142;SDS011;63667;49.046;8.468;2023-08-06T03:00:30;8.93;;;3.40;;
142;SDS011;63667;49.046;8.468;2023-08-06T03:02:57;7.03;;;3.30;;
142;SDS011;63667;49.046;8.468;2023-08-06T03:05:24;13.20;;;3.50;;
142;SDS011;63667;49.046;8.468;2023-08-06T03:07:52;10.47;;;4.17;;
142;SDS011;63667;49.046;8.468;2023-08-06T03:10:19;5.10;;;3.40;;
142;SDS011;63667;49.046;8.468;2023-08-06T03:12:46;6.63;;;3.30;;
142;SDS011;63667;49.046;8.468;2023-08-06T03:15:13;9.03;;;3.33;;
142;SDS011;63667;49.046;8.468;2023-08-06T03:17:41;10.70;;;3.67;;
142;SDS011;63667;49.046;8.468;2023-08-06T03:20:10;8.37;;;3.87;;
142;SDS011;63667;49.046;8.468;2023-08-06T03:22:36;5.97;;;4.00;;
142;SDS011;63667;49.046;8.468;2023-08-06T03:25:04;8.03;;;4.27;;
142;SDS011;63667;49.046;8.468;2023-08-06T03:27:32;9.23;;;3.93;;
142;SDS011;63667;49.046;8.468;2023-08-06T03:30:00;7.60;;;3.50;;
142;SDS011;63667;49.046;8.468;2023-08-06T03:32:27;8.87;;;4.10;;
142;SDS011;63667;49.046;8.468;2023-08-06T03:34:54;6.27;;;3.00;;
142;SDS011;63667;49.046;8.468;2023-08-06T03:37:21;7.00;;;3.50;;
142;SDS011;63667;49.046;8.468;2023-08-06T03:39:49;8.13;;;3.17;;
142;SDS011;63667;49.046;8.468;2023-08-06T03:42:15;4.23;;;3.10;;
142;SDS011;63667;49.046;8.468;2023-08-06T03:44:43;4.50;;;3.00;;
142;SDS011;63667;49.046;8.468;2023-08-06T03:47:10;14.10;;;3.10;;
142;SDS011;63667;49.046;8.468;2023-08-06T03:49:37;5.77;;;3.17;;
142;SDS011;63667;49.046;8.468;2023-08-06T03:52:05;6.43;;;3.50;;
142;SDS011;63667;49.046;8.468;2023-08-06T03:54:32;9.87;;;3.50;;
142;SDS011;63667;49.046;8.468;2023-08-06T03:56:59;7.53;;;2.50;;
142;SDS011;63667;49.046;8.468;2023-08-06T03:59:27;8.53;;;2.70;;
142;SDS011;63667;49.046;8.468;2023-08-06T04:01:54;8.90;;;3.00;;
142;SDS011;63667;49.046;8.468;2023-08-06T04:04:21;7.40;;;2.70;;
142;SDS011;63667;49.046;8.468;2023-08-06T04:06:49;8.10;;;2.67;;
142;SDS011;63667;49.046;8.468;2023-08-06T04:09:16;4.40;;;2.80;;
142;SDS011;63667;49.046;8.468;2023-08-06T04:11:43;4.97;;;2.50;;
142;SDS011;63667;49.046;8.468;2023-08-06T04:14:10;4.97;;;2.40;;
142;SDS011;63667;49.046;8.468;2023-08-06T04:16:38;13.60;;;2.00;;
142;SDS011;63667;49.046;8.468;2023-08-06T04:19:05;3.63;;;2.50;;
142;SDS011;63667;49.046;8.468;2023-08-06T04:21:32;5.87;;;2.80;;
142;SDS011;63667;49.046;8.468;2023-08-06T04:23:59;5.07;;;2.43;;
142;SDS011;63667;49.046;8.468;2023-08-06T04:26:27;9.63;;;3.00;;
142;SDS011;63667;49.046;8.468;2023-08-06T04:28:54;6.07;;;2.60;;
142;SDS011;63667;49.046;8.468;2023-08-06T04:31:21;5.03;;;2.27;;
142;SDS011;63667;49.046;8.468;2023-08-06T04:33:49;12.93;;;3.23;;
142;SDS011;63667;49.046;8.468;2023-08-06T04:36:16;5.17;;;2.33;;
142;SDS011;63667;49.046;8.468;2023-08-06T04:38:44;4.10;;;2.50;;
142;SDS011;63667;49.046;8.468;2023-08-06T04:41:13;5.03;;;2.70;;
142;SDS011;63667;49.046;8.468;2023-08-06T04:43:40;4.97;;;2.43;;
142;SDS011;63667;49.046;8.468;2023-08-06T04:46:06;4.87;;;2.00;;
142;SDS011;63667;49.046;8.468;2023-08-06T04:48:34;6.60;;;2.27;;
142;SDS011;63667;49.046;8.468;2023-08-06T04:51:01;6.23;;;2.60;;
142;SDS011;63667;49.046;8.468;2023-08-06T04:53:28;6.93;;;2.40;;
142;SDS011;63667;49.046;8.468;2023-08-06T04:55:56;3.73;;;2.27;;
142;SDS011;63667;49.046;8.468;2023-08-06T04:58:23;8.93;;;2.87;;
142;SDS011;63667;49.046;8.468;2023-08-06T05:00:50;6.43;;;2.07;;
142;SDS011;63667;49.046;8.468;2023-08-06T05:03:17;3.17;;;2.00;;
142;SDS011;63667;49.046;8.468;2023-08-06T05:05:45;2.97;;;2.10;;
142;SDS011;63667;49.046;8.468;2023-08-06T05:08:15;5.90;;;2.10;;
142;SDS011;63667;49.046;8.468;2023-08-06T05:10:43;6.17;;;1.97;;
142;SDS011;63667;49.046;8.468;2023-08-06T05:13:10;5.40;;;2.00;;
142;SDS011;63667;49.046;8.468;2023-08-06T05:15:37;2.90;;;2.10;;
142;SDS011;63667;49.046;8.468;2023-08-06T05:18:24;2.50;;;2.10;;
142;SDS011;63667;49.046;8.468;2023-08-06T05:20:52;4.40;;;2.20;;
142;SDS011;63667;49.046;8.468;2023-08-06T05:23:20;4.80;;;2.10;;
142;SDS011;63667;49.046;8.468;2023-08-06T05:25:47;2.83;;;2.40;;
142;SDS011;63667;49.046;8.468;2023-08-06T05:28:14;7.00;;;2.47;;
142;SDS011;63667;49.046;8.468;2023-08-06T05:30:41;3.30;;;2.60;;
142;SDS011;63667;49.046;8.468;2023-08-06T05:33:08;5.93;;;3.00;;
142;SDS011;63667;49.046;8.468;2023-08-06T05:35:36;3.87;;;2.40;;
142;SDS011;63667;49.046;8.468;2023-08-06T05:38:03;5.23;;;2.80;;
142;SDS011;63667;49.046;8.468;2023-08-06T05:40:32;8.70;;;2.87;;
142;SDS011;63667;49.046;8.468;2023-08-06T05:43:00;4.60;;;2.70;;
142;SDS011;63667;49.046;8.468;2023-08-06T05:45:27;3.87;;;2.60;;
142;SDS011;63667;49.046;8.468;2023-08-06T05:47:54;6.77;;;2.57;;
142;SDS011;63667;49.046;8.468;2023-08-06T05:50:24;7.90;;;3.37;;
142;SDS011;63667;49.046;8.468;2023-08-06T05:52:51;5.63;;;2.93;;
142;SDS011;63667;49.046;8.468;2023-08-06T05:55:19;4.10;;;2.57;;
142;SDS011;63667;49.046;8.468;2023-08-06T05:57:46;8.13;;;2.57;;
142;SDS011;63667;49.046;8.468;2023-08-06T06:00:13;10.60;;;3.13;;
142;SDS011;63667;49.046;8.468;2023-08-06T06:02:40;6.43;;;2.67;;
142;SDS011;63667;49.046;8.468;2023-08-06T06:05:07;5.87;;;3.30;;
142;SDS011;63667;49.046;8.468;2023-08-06T06:07:35;5.40;;;2.73;;
142;SDS011;63667;49.046;8.468;2023-08-06T06:10:02;4.10;;;2.30;;
142;SDS011;63667;49.046;8.468;2023-08-06T06:12:30;5.63;;;2.80;;
142;SDS011;63667;49.046;8.468;2023-08-06T06:14:57;4.73;;;2.13;;
142;SDS011;63667;49.046;8.468;2023-08-06T06:17:27;3.63;;;2.37;;
142;SDS011;63667;49.046;8.468;2023-08-06T06:19:54;7.87;;;2.10;;
142;SDS011;63667;49.046;8.468;2023-08-06T06:22:21;2.60;;;2.23;;
142;SDS011;63667;49.046;8.468;2023-08-06T06:24:49;7.23;;;2.20;;
142;SDS011;63667;49.046;8.468;2023-08-06T06:27:16;4.73;;;1.90;;
142;SDS011;63667;49.046;8.468;2023-08-06T06:29:43;4.90;;;2.10;;
142;SDS011;63667;49.046;8.468;2023-08-06T06:32:11;6.83;;;1.90;;
142;SDS011;63667;49.046;8.468;2023-08-06T06:34:39;4.00;;;1.97;;
142;SDS011;63667;49.046;8.468;2023-08-06T06:37:06;3.80;;;1.70;;
142;SDS011;63667;49.046;8.468;2023-08-06T06:39:33;2.83;;;1.87;;
142;SDS011;63667;49.046;8.468;2023-08-06T06:42:01;2.10;;;1.70;;
142;SDS011;63667;49.046;8.468;2023-08-06T06:44:28;5.90;;;1.80;;
142;SDS011;63667;49.046;8.468;2023-08-06T06:46:55;2.40;;;1.53;;
142;SDS011;63667;49.046;8.468;2023-08-06T06:49:22;4.33;;;1.80;;
142;SDS011;63667;49.046;8.468;2023-08-06T06:51:50;2.97;;;1.80;;
142;SDS011;63667;49.046;8.468;2023-08-06T06:54:18;2.40;;;1.73;;
142;SDS011;63667;49.046;8.468;2023-08-06T06:56:45;2.80;;;1.70;;
142;SDS011;63667;49.046;8.468;2023-08-06T06:59:13;2.63;;;1.70;;
142;SDS011;63667;49.046;8.468;2023-08-06T07:01:40;3.37;;;1.90;;
142;SDS011;63667;49.046;8.468;2023-08-06T07:04:07;1.97;;;1.57;;
142;SDS011;63667;49.046;8.468;2023-08-06T07:06:34;2.10;;;1.50;;
142;SDS011;63667;49.046;8.468;2023-08-06T07:09:01;7.30;;;1.60;;
142;SDS011;63667;49.046;8.468;2023-08-06T07:11:28;3.70;;;1.70;;
142;SDS011;63667;49.046;8.468;2023-08-06T07:13:56;3.47;;;1.50;;
142;SDS011;63667;49.046;8.468;2023-08-06T07:16:43;3.10;;;1.50;;
142;SDS011;63667;49.046;8.468;2023-08-06T07:19:10;2.50;;;1.90;;
142;SDS011;63667;49.046;8.468;2023-08-06T07:21:37;2.40;;;1.60;;
142;SDS011;63667;49.046;8.468;2023-08-06T07:24:05;2.03;;;1.67;;
142;SDS011;63667;49.046;8.468;2023-08-06T07:26:32;3.17;;;2.00;;
142;SDS011;63667;49.046;8.468;2023-08-06T07:28:59;3.20;;;1.67;;
142;SDS011;63667;49.046;8.468;2023-08-06T07:31:26;2.87;;;1.60;;
142;SDS011;63667;49.046;8.468;2023-08-06T07:33:53;2.20;;;1.80;;
142;SDS011;63667;49.046;8.468;2023-08-06T07:36:20;5.90;;;2.20;;
142;SDS011;63667;49.046;8.468;2023-08-06T07:38:47;3.77;;;1.57;;
142;SDS011;63667;49.046;8.468;2023-08-06T07:41:22;2.33;;;1.60;;
142;SDS011;63667;49.046;8.468;2023-08-06T07:43:49;2.60;;;1.63;;
142;SDS011;63667;49.046;8.468;2023-08-06T07:46:16;2.00;;;1.60;;
142;SDS011;63667;49.046;8.468;2023-08-06T07:48:44;6.17;;;1.60;;
142;SDS011;63667;49.046;8.468;2023-08-06T07:51:11;3.07;;;1.60;;
142;SDS011;63667;49.046;8.468;2023-08-06T07:53:38;2.07;;;1.67;;
142;SDS011;63667;49.046;8.468;2023-08-06T07:56:06;2.17;;;1.77;;
142;SDS011;63667;49.046;8.468;2023-08-06T07:58:33;4.03;;;1.77;;
142;SDS011;63667;49.046;8.468;2023-08-06T08:01:00;2.23;;;1.70;;
142;SDS011;63667;49.046;8.468;2023-08-06T08:03:28;1.90;;;1.60;;
142;SDS011;63667;49.046;8.468;2023-08-06T08:05:55;2.27;;;1.87;;
142;SDS011;63667;49.046;8.468;2023-08-06T08:08:26;2.50;;;1.67;;
142;SDS011;63667;49.046;8.468;2023-08-06T08:10:53;4.47;;;1.60;;
142;SDS011;63667;49.046;8.468;2023-08-06T08:13:21;3.70;;;1.90;;
142;SDS011;63667;49.046;8.468;2023-08-06T08:15:48;4.27;;;1.77;;
142;SDS011;63667;49.046;8.468;2023-08-06T08:18:16;3.73;;;1.80;;
142;SDS011;63667;49.046;8.468;2023-08-06T08:20:43;2.20;;;1.60;;
142;SDS011;63667;49.046;8.468;2023-08-06T08:23:10;4.03;;;2.10;;
142;SDS011;63667;49.046;8.468;2023-08-06T08:25:37;4.10;;;1.80;;
142;SDS011;63667;49.046;8.468;2023-08-06T08:28:04;3.80;;;1.73;;
142;SDS011;63667;49.046;8.468;2023-08-06T08:30:32;3.07;;;1.90;;
142;SDS011;63667;49.046;8.468;2023-08-06T08:32:59;3.50;;;1.87;;
142;SDS011;63667;49.046;8.468;2023-08-06T08:35:26;2.50;;;1.80;;
142;SDS011;63667;49.046;8.468;2023-08-06T08:37:53;2.10;;;1.50;;
142;SDS011;63667;49.046;8.468;2023-08-06T08:40:20;4.10;;;1.70;;
142;SDS011;63667;49.046;8.468;2023-08-06T08:42:49;3.13;;;1.80;;
142;SDS011;63667;49.046;8.468;2023-08-06T08:45:16;7.43;;;1.80;;
142;SDS011;63667;49.046;8.468;2023-08-06T08:47:45;4.20;;;1.90;;
142;SDS011;63667;49.046;8.468;2023-08-06T08:50:13;2.30;;;1.67;;
142;SDS011;63667;49.046;8.468;2023-08-06T08:52:41;2.67;;;2.10;;
142;SDS011;63667;49.046;8.468;2023-08-06T08:55:09;2.43;;;1.80;;
142;SDS011;63667;49.046;8.468;2023-08-06T08:57:36;1.90;;;1.50;;
142;SDS011;63667;49.046;8.468;2023-08-06T09:00:04;3.80;;;2.00;;
142;SDS011;63667;49.046;8.468;2023-08-06T09:02:32;2.57;;;1.73;;
142;SDS011;63667;49.046;8.468;2023-08-06T09:05:00;3.80;;;2.10;;
142;SDS011;63667;49.046;8.468;2023-08-06T09:07:32;2.50;;;2.07;;
142;SDS011;63667;49.046;8.468;2023-08-06T09:10:16;5.80;;;1.93;;
142;SDS011;63667;49.046;8.468;2023-08-06T09:12:44;4.60;;;1.87;;
142;SDS011;63667;49.046;8.468;2023-08-06T09:15:12;2.77;;;1.70;;
142;SDS011;63667;49.046;8.468;2023-08-06T09:17:39;2.40;;;1.70;;
142;SDS011;63667;49.046;8.468;2023-08-06T09:20:13;2.77;;;1.80;;
142;SDS011;63667;49.046;8.468;2023-08-06T09:22:41;2.10;;;1.60;;
142;SDS011;63667;49.046;8.468;2023-08-06T09:25:10;1.90;;;1.70;;
142;SDS011;63667;49.046;8.468;2023-08-06T09:27:39;2.33;;;1.60;;
142;SDS011;63667;49.046;8.468;2023-08-06T09:30:07;2.40;;;1.90;;
142;SDS011;63667;49.046;8.468;2023-08-06T09:32:47;2.77;;;1.60;;
142;SDS011;63667;49.046;8.468;2023-08-06T09:35:30;1.90;;;1.53;;
142;SDS011;63667;49.046;8.468;2023-08-06T09:38:07;1.93;;;1.50;;
142;SDS011;63667;49.046;8.468;2023-08-06T09:40:36;2.20;;;1.60;;
142;SDS011;63667;49.046;8.468;2023-08-06T09:43:03;5.10;;;1.40;;
142;SDS011;63667;49.046;8.468;2023-08-06T09:45:34;2.30;;;1.50;;
142;SDS011;63667;49.046;8.468;2023-08-06T09:48:05;1.83;;;1.43;;
142;SDS011;63667;49.046;8.468;2023-08-06T09:50:33;2.50;;;1.80;;
142;SDS011;63667;49.046;8.468;2023-08-06T09:53:03;3.80;;;2.60;;
142;SDS011;63667;49.046;8.468;2023-08-06T09:55:31;8.87;;;2.27;;
142;SDS011;63667;49.046;8.468;2023-08-06T09:57:59;2.30;;;1.63;;
142;SDS011;63667;49.046;8.468;2023-08-06T10:00:27;2.47;;;1.83;;
142;SDS011;63667;49.046;8.468;2023-08-06T10:02:55;2.90;;;2.00;;
142;SDS011;63667;49.046;8.468;2023-08-06T10:05:26;2.30;;;1.80;;
142;SDS011;63667;49.046;8.468;2023-08-06T10:07:53;2.17;;;1.70;;
142;SDS011;63667;49.046;8.468;2023-08-06T10:10:21;3.50;;;1.70;;
142;SDS011;63667;49.046;8.468;2023-08-06T10:12:54;2.30;;;1.70;;
142;SDS011;63667;49.046;8.468;2023-08-06T10:15:23;2.97;;;1.50;;
142;SDS011;63667;49.046;8.468;2023-08-06T10:17:51;4.27;;;2.07;;
142;SDS011;63667;49.046;8.468;2023-08-06T10:20:19;2.67;;;1.60;;
142;SDS011;63667;49.046;8.468;2023-08-06T10:23:06;2.00;;;1.70;;
142;SDS011;63667;49.046;8.468;2023-08-06T10:25:40;2.60;;;1.73;;
142;SDS011;63667;49.046;8.468;2023-08-06T10:28:08;2.07;;;1.70;;
142;SDS011;63667;49.046;8.468;2023-08-06T10:30:42;2.13;;;1.87;;
142;SDS011;63667;49.046;8.468;2023-08-06T10:33:12;2.00;;;1.57;;
142;SDS011;63667;49.046;8.468;2023-08-06T10:35:40;2.90;;;2.30;;
142;SDS011;63667;49.046;8.468;2023-08-06T10:40:52;3.77;;;2.30;;
142;SDS011;63667;49.046;8.468;2023-08-06T10:43:31;2.77;;;1.97;;
142;SDS011;63667;49.046;8.468;2023-08-06T10:46:02;3.80;;;2.67;;
142;SDS011;63667;49.046;8.468;2023-08-06T10:51:02;4.30;;;2.70;;
142;SDS011;63667;49.046;8.468;2023-08-06T10:53:30;4.60;;;2.60;;
142;SDS011;63667;49.046;8.468;2023-08-06T10:55:57;4.37;;;2.50;;
142;SDS011;63667;49.046;8.468;2023-08-06T10:58:24;3.17;;;2.50;;
142;SDS011;63667;49.046;8.468;2023-08-06T11:00:52;4.93;;;2.53;;
142;SDS011;63667;49.046;8.468;2023-08-06T11:03:19;7.30;;;2.87;;
142;SDS011;63667;49.046;8.468;2023-08-06T11:05:49;3.57;;;2.60;;
142;SDS011;63667;49.046;8.468;2023-08-06T11:08:26;3.87;;;3.03;;
142;SDS011;63667;49.046;8.468;2023-08-06T11:10:54;4.97;;;3.30;;
142;SDS011;63667;49.046;8.468;2023-08-06T11:13:21;6.40;;;2.80;;
142;SDS011;63667;49.046;8.468;2023-08-06T11:15:49;6.70;;;2.93;;
142;SDS011;63667;49.046;8.468;2023-08-06T11:18:16;5.43;;;3.90;;
142;SDS011;63667;49.046;8.468;2023-08-06T11:20:43;5.57;;;3.37;;
142;SDS011;63667;49.046;8.468;2023-08-06T11:23:12;5.83;;;3.40;;
142;SDS011;63667;49.046;8.468;2023-08-06T11:25:46;9.17;;;4.20;;
142;SDS011;63667;49.046;8.468;2023-08-06T11:28:13;5.23;;;3.00;;
142;SDS011;63667;49.046;8.468;2023-08-06T11:30:40;6.27;;;3.87;;
142;SDS011;63667;49.046;8.468;2023-08-06T11:33:08;5.93;;;3.70;;
142;SDS011;63667;49.046;8.468;2023-08-06T11:35:35;11.30;;;3.60;;
142;SDS011;63667;49.046;8.468;2023-08-06T11:38:03;6.00;;;4.20;;
142;SDS011;63667;49.046;8.468;2023-08-06T11:40:30;4.77;;;3.50;;
142;SDS011;63667;49.046;8.468;2023-08-06T11:42:58;6.00;;;4.23;;
142;SDS011;63667;49.046;8.468;2023-08-06T11:45:25;5.57;;;3.87;;
142;SDS011;63667;49.046;8.468;2023-08-06T11:47:53;5.43;;;3.87;;
142;SDS011;63667;49.046;8.468;2023-08-06T11:50:24;3.70;;;3.60;;
142;SDS011;63667;49.046;8.468;2023-08-06T11:52:58;6.43;;;3.83;;
142;SDS011;63667;49.046;8.468;2023-08-06T11:55:27;5.07;;;3.40;;
142;SDS011;63667;49.046;8.468;2023-08-06T11:57:55;6.73;;;3.40;;
142;SDS011;63667;49.046;8.468;2023-08-06T12:00:24;17.47;;;3.77;;
142;SDS011;63667;49.046;8.468;2023-08-06T12:03:09;4.70;;;3.30;;
142;SDS011;63667;49.046;8.468;2023-08-06T12:05:37;5.40;;;3.30;;
142;SDS011;63667;49.046;8.468;2023-08-06T12:08:04;6.40;;;3.87;;
142;SDS011;63667;49.046;8.468;2023-08-06T12:10:32;7.30;;;3.27;;
142;SDS011;63667;49.046;8.468;2023-08-06T12:13:00;4.80;;;3.47;;
142;SDS011;63667;49.046;8.468;2023-08-06T12:15:28;7.90;;;3.33;;
142;SDS011;63667;49.046;8.468;2023-08-06T12:17:56;7.37;;;3.87;;
142;SDS011;63667;49.046;8.468;2023-08-06T12:20:23;7.20;;;3.17;;
142;SDS011;63667;49.046;8.468;2023-08-06T12:22:51;5.93;;;2.80;;
142;SDS011;63667;49.046;8.468;2023-08-06T12:25:18;6.57;;;3.63;;
142;SDS011;63667;49.046;8.468;2023-08-06T12:27:46;6.13;;;2.93;;
142;SDS011;63667;49.046;8.468;2023-08-06T12:30:13;8.13;;;3.70;;
142;SDS011;63667;49.046;8.468;2023-08-06T12:32:41;5.03;;;3.10;;
142;SDS011;63667;49.046;8.468;2023-08-06T12:35:08;3.70;;;3.13;;
142;SDS011;63667;49.046;8.468;2023-08-06T12:37:35;4.37;;;3.03;;
142;SDS011;63667;49.046;8.468;2023-08-06T12:40:06;4.30;;;3.07;;
142;SDS011;63667;49.046;8.468;2023-08-06T12:42:33;6.03;;;2.93;;
142;SDS011;63667;49.046;8.468;2023-08-06T12:45:00;9.00;;;3.40;;
142;SDS011;63667;49.046;8.468;2023-08-06T12:47:28;4.37;;;3.40;;
142;SDS011;63667;49.046;8.468;2023-08-06T12:49:56;7.53;;;2.60;;
142;SDS011;63667;49.046;8.468;2023-08-06T12:52:23;3.90;;;2.90;;
142;SDS011;63667;49.046;8.468;2023-08-06T12:54:50;5.67;;;3.10;;
142;SDS011;63667;49.046;8.468;2023-08-06T12:57:17;4.10;;;3.20;;
142;SDS011;63667;49.046;8.468;2023-08-06T12:59:44;2.70;;;2.40;;
142;SDS011;63667;49.046;8.468;2023-08-06T13:02:12;7.00;;;2.57;;
142;SDS011;63667;49.046;8.468;2023-08-06T13:04:39;3.80;;;2.10;;
142;SDS011;63667;49.046;8.468;2023-08-06T13:07:06;2.67;;;1.90;;
142;SDS011;63667;49.046;8.468;2023-08-06T13:09:33;4.00;;;2.10;;
142;SDS011;63667;49.046;8.468;2023-08-06T13:12:01;4.40;;;2.40;;
142;SDS011;63667;49.046;8.468;2023-08-06T13:14:31;2.50;;;1.93;;
142;SDS011;63667;49.046;8.468;2023-08-06T13:17:00;2.40;;;2.00;;
142;SDS011;63667;49.046;8.468;2023-08-06T13:19:27;2.50;;;1.90;;
142;SDS011;63667;49.046;8.468;2023-08-06T13:22:03;2.77;;;1.80;;
142;SDS011;63667;49.046;8.468;2023-08-06T13:24:31;2.73;;;2.00;;
142;SDS011;63667;49.046;8.468;2023-08-06T13:26:58;3.73;;;1.87;;
142;SDS011;63667;49.046;8.468;2023-08-06T13:29:25;3.03;;;1.97;;
142;SDS011;63667;49.046;8.468;2023-08-06T13:31:53;3.60;;;1.70;;
142;SDS011;63667;49.046;8.468;2023-08-06T13:34:20;2.07;;;1.70;;
142;SDS011;63667;49.046;8.468;2023-08-06T13:36:47;3.90;;;2.60;;
142;SDS011;63667;49.046;8.468;2023-08-06T13:39:15;2.23;;;1.87;;
142;SDS011;63667;49.046;8.468;2023-08-06T13:41:43;2.27;;;1.90;;
142;SDS011;63667;49.046;8.468;2023-08-06T13:44:10;2.40;;;1.87;;
142;SDS011;63667;49.046;8.468;2023-08-06T13:46:40;3.50;;;1.87;;
142;SDS011;63667;49.046;8.468;2023-08-06T13:49:07;3.47;;;1.97;;
142;SDS011;63667;49.046;8.468;2023-08-06T13:51:34;2.83;;;2.10;;
142;SDS011;63667;49.046;8.468;2023-08-06T13:54:02;2.90;;;2.00;;
142;SDS011;63667;49.046;8.468;2023-08-06T13:56:29;3.87;;;2.00;;
142;SDS011;63667;49.046;8.468;2023-08-06T13:58:56;2.10;;;1.77;;
142;SDS011;63667;49.046;8.468;2023-08-06T14:01:24;2.30;;;2.10;;
142;SDS011;63667;49.046;8.468;2023-08-06T14:03:51;2.17;;;1.87;;
142;SDS011;63667;49.046;8.468;2023-08-06T14:06:19;2.90;;;2.17;;
142;SDS011;63667;49.046;8.468;2023-08-06T14:08:46;2.73;;;1.73;;
142;SDS011;63667;49.046;8.468;2023-08-06T14:11:13;5.30;;;2.00;;
142;SDS011;63667;49.046;8.468;2023-08-06T14:13:40;3.00;;;1.93;;
142;SDS011;63667;49.046;8.468;2023-08-06T14:16:08;2.33;;;1.97;;
142;SDS011;63667;49.046;8.468;2023-08-06T14:18:35;2.03;;;1.80;;
142;SDS011;63667;49.046;8.468;2023-08-06T14:21:04;2.67;;;2.47;;
142;SDS011;63667;49.046;8.468;2023-08-06T14:23:31;2.30;;;2.00;;
142;SDS011;63667;49.046;8.468;2023-08-06T14:25:58;2.30;;;1.60;;
142;SDS011;63667;49.046;8.468;2023-08-06T14:28:26;3.40;;;1.90;;
142;SDS011;63667;49.046;8.468;2023-08-06T14:30:53;3.93;;;2.03;;
142;SDS011;63667;49.046;8.468;2023-08-06T14:33:21;4.60;;;1.80;;
142;SDS011;63667;49.046;8.468;2023-08-06T14:35:50;5.03;;;2.43;;
142;SDS011;63667;49.046;8.468;2023-08-06T14:38:18;3.00;;;2.10;;
142;SDS011;63667;49.046;8.468;2023-08-06T14:40:45;3.83;;;2.00;;
142;SDS011;63667;49.046;8.468;2023-08-06T14:43:12;6.53;;;2.33;;
142;SDS011;63667;49.046;8.468;2023-08-06T14:45:39;2.67;;;2.10;;
142;SDS011;63667;49.046;8.468;2023-08-06T14:48:06;5.53;;;2.40;;
142;SDS011;63667;49.046;8.468;2023-08-06T14:50:32;2.63;;;2.07;;
142;SDS011;63667;49.046;8.468;2023-08-06T14:52:59;4.00;;;2.20;;
142;SDS011;63667;49.046;8.468;2023-08-06T14:55:27;2.80;;;2.60;;
142;SDS011;63667;49.046;8.468;2023-08-06T14:57:54;4.60;;;1.90;;
142;SDS011;63667;49.046;8.468;2023-08-06T15:00:20;3.07;;;1.70;;
142;SDS011;63667;49.046;8.468;2023-08-06T15:02:47;2.63;;;1.87;;
142;SDS011;63667;49.046;8.468;2023-08-06T15:05:13;2.20;;;1.80;;
142;SDS011;63667;49.046;8.468;2023-08-06T15:07:40;3.50;;;2.00;;
142;SDS011;63667;49.046;8.468;2023-08-06T15:10:06;2.50;;;1.80;;
142;SDS011;63667;49.046;8.468;2023-08-06T15:12:33;2.10;;;1.80;;
142;SDS011;63667;49.046;8.468;2023-08-06T15:14:59;8.10;;;2.07;;
142;SDS011;63667;49.046;8.468;2023-08-06T15:17:29;5.30;;;2.03;;
142;SDS011;63667;49.046;8.468;2023-08-06T15:19:55;4.70;;;2.00;;
142;SDS011;63667;49.046;8.468;2023-08-06T15:22:23;3.03;;;1.93;;
142;SDS011;63667;49.046;8.468;2023-08-06T15:24:49;2.80;;;2.03;;
142;SDS011;63667;49.046;8.468;2023-08-06T15:27:16;4.63;;;2.00;;